Time;durP1;ratioP1;P1;durP2;ratioP2;P2;SDS_P1;SDS_P2;PMS_P1;PMS_P2;Temp;Humidity;BMP_temperature;BMP_pressure;BME280_temperature;BME280_humidity;BME280_pressure;Samples;Min_cycle;Max_cycle;Signal;HPM_P1;HPM_P2
2024/01/06 00:02:43;;;;;;;;;;;;;;;7.67;49.56;97955.76;67536;1282;1016224;-70
2024/01/06 00:05:46;;;;;;;;;;;;;;;7.68;49.56;97952.73;67564;1282;1016408;-66
2024/01/06 00:08:53;;;;;;;;;;;;;;;7.55;49.79;97951.64;67579;1282;1016431;-68
2024/01/06 00:11:56;;;;;;;;;;;;;;;7.60;49.85;97952.73;67566;1282;1018077;-70
2024/01/06 00:14:59;;;;;;;;;;;;;;;7.80;49.24;97954.80;67559;1282;1016537;-70
2024/01/06 00:18:01;;;;;;;;;;;;;;;7.54;49.70;97962.63;67558;1282;1016307;-66
2024/01/06 00:21:04;;;;;;;;;;;;;;;7.37;49.79;97965.48;67578;1282;1015922;-67
2024/01/06 00:24:07;;;;;;;;;;;;;;;7.33;50.29;97963.23;67516;1282;1016474;-65
2024/01/06 00:27:09;;;;;;;;;;;;;;;7.19;50.66;97959.39;67513;1282;1016420;-70
2024/01/06 00:30:12;;;;;;;;;;;;;;;7.22;50.66;97961.99;67560;1282;1016440;-69
2024/01/06 00:33:15;;;;;;;;;;;;;;;7.27;50.45;97955.09;67530;1282;1017294;-70
2024/01/06 00:36:18;;;;;;;;;;;;;;;7.19;50.80;97951.58;67563;1282;1016360;-70
2024/01/06 00:39:21;;;;;;;;;;;;;;;7.28;50.90;97951.39;67552;1282;1016609;-70
2024/01/06 00:42:24;;;;;;;;;;;;;;;7.17;50.92;97955.38;67529;1282;1019093;-70
2024/01/06 00:45:26;;;;;;;;;;;;;;;7.21;51.01;97961.02;67576;1282;1016531;-70
2024/01/06 00:48:29;;;;;;;;;;;;;;;7.43;50.92;97961.66;67544;1282;1016155;-70
2024/01/06 00:51:32;;;;;;;;;;;;;;;7.58;50.80;97958.38;67551;1282;1016180;-68
2024/01/06 00:54:34;;;;;;;;;;;;;;;7.69;50.59;97957.02;67569;1282;1016447;-70
2024/01/06 00:57:37;;;;;;;;;;;;;;;7.69;50.49;97954.98;67589;1282;1016404;-70
2024/01/06 01:00:40;;;;;;;;;;;;;;;7.65;50.61;97955.58;67542;1282;1016008;-70
2024/01/06 01:03:42;;;;;;;;;;;;;;;7.64;50.77;97959.13;67587;1282;1016340;-70
2024/01/06 01:06:45;;;;;;;;;;;;;;;7.92;50.43;97967.60;67586;1282;1015800;-70
2024/01/06 01:09:48;;;;;;;;;;;;;;;8.20;50.15;97968.24;67554;1282;1016426;-70
2024/01/06 01:12:50;;;;;;;;;;;;;;;8.39;49.88;97972.38;67569;1282;1017716;-70
2024/01/06 01:15:53;;;;;;;;;;;;;;;8.37;49.85;97959.85;67591;1282;1016675;-70
2024/01/06 01:18:56;;;;;;;;;;;;;;;8.32;50.04;97959.98;67506;1282;1016491;-70
2024/01/06 01:21:59;;;;;;;;;;;;;;;8.35;49.91;97955.26;67606;1282;1015957;-70
2024/01/06 01:25:05;;;;;;;;;;;;;;;8.39;50.00;97952.54;67570;1282;1016237;-70
2024/01/06 01:28:08;;;;;;;;;;;;;;;8.47;49.93;97955.02;67543;1282;1016268;-70
2024/01/06 01:31:10;;;;;;;;;;;;;;;8.54;49.72;97950.73;67581;1282;1016444;-70
2024/01/06 01:34:13;;;;;;;;;;;;;;;8.44;50.01;97945.11;67594;1282;1016331;-69
2024/01/06 01:37:16;;;;;;;;;;;;;;;8.44;50.02;97942.48;67533;1282;1015997;-70
2024/01/06 01:40:18;;;;;;;;;;;;;;;8.51;50.07;97941.88;67597;1282;1016469;-70
2024/01/06 01:43:21;;;;;;;;;;;;;;;8.73;49.84;97945.49;67593;1282;1016418;-70
2024/01/06 01:46:24;;;;;;;;;;;;;;;8.70;49.68;97941.27;67523;1282;1016392;-70
2024/01/06 01:49:27;;;;;;;;;;;;;;;8.64;49.85;97943.09;67576;1282;1016086;-70
2024/01/06 01:52:29;;;;;;;;;;;;;;;8.56;49.98;97944.16;67582;1282;1016780;-71
2024/01/06 01:55:32;;;;;;;;;;;;;;;8.44;50.56;97946.30;67546;1282;1016404;-70
2024/01/06 01:58:35;;;;;;;;;;;;;;;8.52;50.54;97942.34;67572;1282;1016075;-70
2024/01/06 02:01:37;;;;;;;;;;;;;;;8.64;49.99;97939.78;67584;1282;1016409;-70
2024/01/06 02:04:40;;;;;;;;;;;;;;;8.56;50.12;97939.64;67514;1282;1016501;-70
2024/01/06 02:07:43;;;;;;;;;;;;;;;8.58;50.64;97939.52;67584;1282;1015943;-70
2024/01/06 02:10:46;;;;;;;;;;;;;;;8.51;50.53;97939.10;67544;1282;1016499;-69
2024/01/06 02:13:48;;;;;;;;;;;;;;;8.50;50.65;97941.08;67529;1282;1016457;-69
2024/01/06 02:16:51;;;;;;;;;;;;;;;8.65;50.38;97942.17;67565;1282;1016035;-70
2024/01/06 02:19:54;;;;;;;;;;;;;;;8.69;50.24;97942.58;67535;1282;1016482;-69
2024/01/06 02:22:58;;;;;;;;;;;;;;;8.67;50.57;97940.30;67537;1282;1016449;-68
2024/01/06 02:26:01;;;;;;;;;;;;;;;8.70;50.54;97938.52;67599;1282;1017269;-69
2024/01/06 02:29:04;;;;;;;;;;;;;;;8.84;50.71;97939.69;67586;1282;1016305;-70
2024/01/06 02:32:06;;;;;;;;;;;;;;;8.96;50.34;97938.84;67521;1282;1016333;-70
2024/01/06 02:35:09;;;;;;;;;;;;;;;9.11;49.89;97936.41;67582;1282;1016485;-70
2024/01/06 02:38:12;;;;;;;;;;;;;;;9.10;49.83;97932.67;67548;1282;1016490;-71
2024/01/06 02:41:14;;;;;;;;;;;;;;;9.09;50.03;97932.73;67551;1282;1016230;-70
2024/01/06 02:44:17;;;;;;;;;;;;;;;9.03;49.58;97926.88;67578;1282;1016828;-70
2024/01/06 02:47:20;;;;;;;;;;;;;;;8.87;49.70;97929.38;67520;1282;1016355;-68
2024/01/06 02:50:23;;;;;;;;;;;;;;;8.63;50.12;97926.27;67552;1282;1016533;-70
2024/01/06 02:53:25;;;;;;;;;;;;;;;8.45;50.61;97922.94;67600;1282;1016489;-68
2024/01/06 02:56:28;;;;;;;;;;;;;;;8.34;50.93;97929.52;67554;1282;1016289;-63
2024/01/06 02:59:32;;;;;;;;;;;;;;;8.14;51.43;97929.44;67561;1282;1016273;-66
2024/01/06 03:02:37;;;;;;;;;;;;;;;8.20;51.21;97928.36;67555;1282;1016496;-68
2024/01/06 03:05:40;;;;;;;;;;;;;;;8.20;51.69;97932.55;67590;1282;1016002;-68
2024/01/06 03:08:43;;;;;;;;;;;;;;;8.40;51.57;97931.61;67554;1282;1016390;-69
2024/01/06 03:11:45;;;;;;;;;;;;;;;8.59;51.17;97933.12;67590;1282;1016274;-68
2024/01/06 03:14:48;;;;;;;;;;;;;;;8.65;51.16;97932.71;67588;1282;1016291;-69
2024/01/06 03:17:51;;;;;;;;;;;;;;;8.78;51.03;97929.27;67545;1282;1016072;-66
2024/01/06 03:20:54;;;;;;;;;;;;;;;8.91;50.83;97918.78;67595;1282;1016193;-67
2024/01/06 03:23:56;;;;;;;;;;;;;;;8.83;50.91;97908.86;67550;1282;1016862;-66
2024/01/06 03:26:59;;;;;;;;;;;;;;;8.70;50.76;97913.44;67556;1282;1016322;-69
2024/01/06 03:30:03;;;;;;;;;;;;;;;8.74;50.90;97915.58;67597;1282;1016309;-67
2024/01/06 03:33:05;;;;;;;;;;;;;;;8.79;50.82;97920.84;67542;1282;1016446;-67
2024/01/06 03:36:08;;;;;;;;;;;;;;;8.90;50.82;97923.92;67630;1282;1016183;-65
2024/01/06 03:39:13;;;;;;;;;;;;;;;8.94;50.73;97926.11;67546;1282;1016915;-68
2024/01/06 03:42:16;;;;;;;;;;;;;;;9.06;50.63;97925.43;67555;1282;1016283;-69
2024/01/06 03:45:18;;;;;;;;;;;;;;;9.10;50.51;97926.38;67589;1282;1015823;-67
2024/01/06 03:48:21;;;;;;;;;;;;;;;8.90;50.82;97924.08;67547;1282;1017232;-66
2024/01/06 03:51:24;;;;;;;;;;;;;;;8.83;50.83;97924.73;67529;1282;1016380;-69
2024/01/06 03:54:26;;;;;;;;;;;;;;;8.62;51.23;97918.84;67573;1282;1016673;-70
2024/01/06 03:57:29;;;;;;;;;;;;;;;8.52;51.39;97913.78;67583;1282;1016447;-70
2024/01/06 04:00:32;;;;;;;;;;;;;;;8.56;51.27;97911.21;67569;1282;1016477;-70
2024/01/06 04:03:34;;;;;;;;;;;;;;;8.47;51.52;97910.73;67579;1282;1016479;-70
2024/01/06 04:06:37;;;;;;;;;;;;;;;8.42;51.55;97910.20;67569;1282;1015761;-70
2024/01/06 04:09:40;;;;;;;;;;;;;;;8.26;52.01;97917.71;67560;1282;1016455;-70
2024/01/06 04:12:42;;;;;;;;;;;;;;;8.37;52.13;97915.71;67612;1282;1016476;-70
2024/01/06 04:15:45;;;;;;;;;;;;;;;8.52;51.68;97914.24;67579;1282;1016388;-70
2024/01/06 04:18:48;;;;;;;;;;;;;;;8.43;51.95;97914.65;67549;1282;1016356;-70
2024/01/06 04:21:50;;;;;;;;;;;;;;;8.47;52.13;97913.71;67577;1282;1016104;-70
2024/01/06 04:24:53;;;;;;;;;;;;;;;8.55;51.79;97910.94;67585;1282;1018282;-70
2024/01/06 04:27:56;;;;;;;;;;;;;;;8.57;51.91;97909.58;67560;1282;1016221;-70
2024/01/06 04:30:59;;;;;;;;;;;;;;;8.52;51.96;97910.97;67585;1282;1018935;-70
2024/01/06 04:34:03;;;;;;;;;;;;;;;8.59;51.94;97910.31;67551;1282;1017953;-68
2024/01/06 04:37:05;;;;;;;;;;;;;;;8.71;51.85;97915.44;67571;1282;1016255;-68
2024/01/06 04:40:09;;;;;;;;;;;;;;;8.83;51.71;97917.24;67565;1282;1016504;-68
2024/01/06 04:43:12;;;;;;;;;;;;;;;8.83;51.56;97912.70;67530;1282;1016439;-70
2024/01/06 04:46:15;;;;;;;;;;;;;;;8.70;51.51;97918.14;67601;1282;1016140;-70
2024/01/06 04:49:17;;;;;;;;;;;;;;;8.62;51.73;97919.68;67574;1282;1019568;-70
2024/01/06 04:52:20;;;;;;;;;;;;;;;8.58;51.69;97914.74;67566;1282;1016391;-69
2024/01/06 04:55:23;;;;;;;;;;;;;;;8.55;52.32;97914.55;67604;1282;1018097;-70
2024/01/06 04:58:26;;;;;;;;;;;;;;;8.41;52.34;97914.41;67598;1282;1016324;-69
2024/01/06 05:01:28;;;;;;;;;;;;;;;8.20;52.90;97914.24;67557;1282;1016054;-69
2024/01/06 05:04:32;;;;;;;;;;;;;;;8.10;52.78;97923.96;67576;1282;1016665;-70
2024/01/06 05:07:35;;;;;;;;;;;;;;;8.08;52.94;97924.95;67595;1282;1016157;-69
2024/01/06 05:10:38;;;;;;;;;;;;;;;8.10;52.95;97934.63;67597;1282;1016426;-70
2024/01/06 05:13:40;;;;;;;;;;;;;;;8.20;52.85;97931.32;67540;1282;1016305;-70
2024/01/06 05:16:43;;;;;;;;;;;;;;;8.10;52.79;97936.84;67593;1282;1016447;-69
2024/01/06 05:19:46;;;;;;;;;;;;;;;8.12;53.00;97942.13;67566;1282;1016523;-70
2024/01/06 05:22:49;;;;;;;;;;;;;;;8.11;52.82;97954.54;67555;1282;1016488;-70
2024/01/06 05:25:51;;;;;;;;;;;;;;;8.15;52.87;97958.27;67605;1282;1016240;-70
2024/01/06 05:28:54;;;;;;;;;;;;;;;8.18;52.73;97959.67;67554;1282;1016109;-70
2024/01/06 05:31:57;;;;;;;;;;;;;;;8.18;52.71;97960.73;67562;1282;1016524;-70
2024/01/06 05:34:59;;;;;;;;;;;;;;;8.01;53.21;97959.72;67603;1282;1016697;-69
2024/01/06 05:38:02;;;;;;;;;;;;;;;7.99;53.26;97961.05;67555;1282;1018840;-70
2024/01/06 05:41:05;;;;;;;;;;;;;;;8.00;53.45;97962.55;67542;1282;1016174;-70
2024/01/06 05:44:08;;;;;;;;;;;;;;;7.86;53.76;97957.55;67565;1282;1016442;-70
2024/01/06 05:47:10;;;;;;;;;;;;;;;7.83;54.15;97962.97;67566;1282;1016245;-70
2024/01/06 05:50:13;;;;;;;;;;;;;;;7.86;53.89;97963.27;67540;1282;1016495;-70
2024/01/06 05:53:18;;;;;;;;;;;;;;;7.86;53.92;97972.34;67563;1282;1016451;-70
2024/01/06 05:56:21;;;;;;;;;;;;;;;7.89;54.03;97971.44;67530;1282;1016628;-70
2024/01/06 05:59:23;;;;;;;;;;;;;;;8.01;53.66;97967.73;67564;1282;1016460;-70
2024/01/06 06:02:26;;;;;;;;;;;;;;;8.09;53.48;97966.86;67566;1282;1016393;-70
2024/01/06 06:05:29;;;;;;;;;;;;;;;8.07;53.62;97964.38;67524;1282;1016485;-70
2024/01/06 06:08:31;;;;;;;;;;;;;;;7.93;54.06;97969.84;67579;1282;1016308;-71
2024/01/06 06:11:34;;;;;;;;;;;;;;;7.83;54.07;97969.75;67571;1282;1016466;-70
2024/01/06 06:14:37;;;;;;;;;;;;;;;7.77;54.31;97973.10;67521;1282;1016467;-70
2024/01/06 06:17:39;;;;;;;;;;;;;;;7.73;54.19;97974.69;67584;1282;1016320;-70
2024/01/06 06:20:43;;;;;;;;;;;;;;;7.68;54.26;97980.60;67557;1282;1016478;-70
2024/01/06 06:23:46;;;;;;;;;;;;;;;7.78;53.98;97986.91;67585;1282;1017518;-69
2024/01/06 06:26:49;;;;;;;;;;;;;;;7.96;53.77;97987.53;67526;1282;1016307;-70
2024/01/06 06:29:51;;;;;;;;;;;;;;;8.05;53.52;97987.13;67560;1282;1016309;-70
2024/01/06 06:32:55;;;;;;;;;;;;;;;8.09;53.57;97991.05;67513;1282;1016449;-69
2024/01/06 06:35:57;;;;;;;;;;;;;;;8.20;53.16;97993.00;67557;1282;1016482;-70
2024/01/06 06:39:00;;;;;;;;;;;;;;;8.23;53.21;97993.11;67563;1282;1016407;-68
2024/01/06 06:42:03;;;;;;;;;;;;;;;8.42;52.78;97993.14;67524;1282;1016494;-70
2024/01/06 06:45:06;;;;;;;;;;;;;;;8.37;52.83;97995.07;67589;1282;1016425;-67
2024/01/06 06:48:08;;;;;;;;;;;;;;;8.24;53.33;98000.93;67541;1282;1016090;-69
2024/01/06 06:51:11;;;;;;;;;;;;;;;8.36;53.24;98008.98;67516;1282;1016525;-68
2024/01/06 06:54:14;;;;;;;;;;;;;;;8.49;53.04;98009.04;67564;1282;1016596;-67
2024/01/06 06:57:17;;;;;;;;;;;;;;;8.62;52.52;98011.89;67529;1282;1017356;-67
2024/01/06 07:00:20;;;;;;;;;;;;;;;8.56;52.45;98007.09;67569;1282;1016462;-70
2024/01/06 07:03:22;;;;;;;;;;;;;;;8.45;52.95;98001.80;67542;1282;1016465;-69
2024/01/06 07:06:26;;;;;;;;;;;;;;;8.47;52.92;98003.25;67520;1282;1016257;-68
2024/01/06 07:09:28;;;;;;;;;;;;;;;8.31;53.06;98001.67;67558;1282;1016208;-68
2024/01/06 07:12:31;;;;;;;;;;;;;;;8.25;53.13;97997.34;67509;1282;1016312;-65
2024/01/06 07:15:34;;;;;;;;;;;;;;;8.30;52.78;98004.86;67542;1282;1016272;-70
2024/01/06 07:18:37;;;;;;;;;;;;;;;8.39;52.63;98000.84;67543;1282;1016655;-70
2024/01/06 07:21:40;;;;;;;;;;;;;;;8.44;52.54;98002.63;67491;1282;1016485;-70
2024/01/06 07:24:42;;;;;;;;;;;;;;;8.42;52.48;98003.57;67537;1282;1016254;-70
2024/01/06 07:27:45;;;;;;;;;;;;;;;8.31;52.69;98009.15;67548;1282;1016342;-70
2024/01/06 07:30:48;;;;;;;;;;;;;;;8.46;52.44;98007.52;67524;1282;1016128;-70
2024/01/06 07:33:50;;;;;;;;;;;;;;;8.54;52.28;98010.14;67593;1282;1016371;-69
2024/01/06 07:36:53;;;;;;;;;;;;;;;8.40;52.70;98005.96;67537;1282;1016485;-70
2024/01/06 07:39:56;;;;;;;;;;;;;;;8.54;52.11;98013.86;67524;1282;1016349;-67
2024/01/06 07:42:58;;;;;;;;;;;;;;;8.33;52.56;98013.37;67553;1282;1016426;-69
2024/01/06 07:46:01;;;;;;;;;;;;;;;8.42;52.64;98012.33;67562;1282;1016449;-68
2024/01/06 07:49:04;;;;;;;;;;;;;;;8.33;52.96;98014.58;67529;1282;1018285;-70
2024/01/06 07:52:07;;;;;;;;;;;;;;;8.31;53.16;98018.08;67603;1282;1016470;-69
2024/01/06 07:55:10;;;;;;;;;;;;;;;8.31;52.97;98023.10;67533;1282;1016428;-70
2024/01/06 07:58:12;;;;;;;;;;;;;;;8.32;53.07;98022.33;67569;1282;1016397;-70
2024/01/06 08:01:15;;;;;;;;;;;;;;;8.56;53.15;98016.97;67607;1282;1016016;-70
2024/01/06 08:04:18;;;;;;;;;;;;;;;8.60;52.48;98019.53;67591;1282;1016507;-70
2024/01/06 08:07:20;;;;;;;;;;;;;;;8.61;52.53;98026.05;67516;1282;1016435;-70
2024/01/06 08:10:23;;;;;;;;;;;;;;;8.57;52.68;98029.63;67576;1282;1016262;-70
2024/01/06 08:13:26;;;;;;;;;;;;;;;8.61;52.47;98035.49;67543;1282;1018477;-70
2024/01/06 08:16:28;;;;;;;;;;;;;;;8.58;52.74;98042.09;67509;1282;1017185;-69
2024/01/06 08:19:33;;;;;;;;;;;;;;;8.64;52.34;98043.11;67608;1282;1018951;-69
2024/01/06 08:22:35;;;;;;;;;;;;;;;8.60;52.33;98044.45;67556;1282;1016405;-71
2024/01/06 08:25:38;;;;;;;;;;;;;;;8.53;52.48;98044.52;67572;1282;1016302;-70
2024/01/06 08:28:41;;;;;;;;;;;;;;;8.52;52.83;98044.41;67523;1283;1016478;-70
2024/01/06 08:31:44;;;;;;;;;;;;;;;8.60;52.62;98049.51;67593;1282;1016321;-70
2024/01/06 08:34:47;;;;;;;;;;;;;;;8.49;53.09;98054.73;67544;1282;1016477;-70
2024/01/06 08:37:50;;;;;;;;;;;;;;;8.50;52.96;98054.84;67560;1282;1016241;-70
2024/01/06 08:40:53;;;;;;;;;;;;;;;8.66;53.09;98057.96;67568;1282;1016393;-70
2024/01/06 08:43:56;;;;;;;;;;;;;;;8.66;53.06;98060.25;67567;1282;1016185;-70
2024/01/06 08:46:59;;;;;;;;;;;;;;;8.78;52.90;98065.89;67542;1282;1016513;-70
2024/01/06 08:50:01;;;;;;;;;;;;;;;8.77;52.74;98067.02;67534;1282;1016420;-70
2024/01/06 08:53:04;;;;;;;;;;;;;;;8.63;53.21;98067.39;67575;1282;1016509;-70
2024/01/06 08:56:08;;;;;;;;;;;;;;;8.57;53.71;98069.88;67542;1282;1016747;-67
2024/01/06 08:59:10;;;;;;;;;;;;;;;8.60;53.58;98072.16;67618;1283;1016569;-70
2024/01/06 09:02:13;;;;;;;;;;;;;;;8.64;53.56;98076.42;67570;1282;1016417;-70
2024/01/06 09:05:16;;;;;;;;;;;;;;;8.82;53.35;98077.02;67524;1282;1016427;-70
2024/01/06 09:08:18;;;;;;;;;;;;;;;8.81;53.34;98080.20;67584;1282;1016441;-70
2024/01/06 09:11:21;;;;;;;;;;;;;;;8.84;53.20;98082.61;67543;1282;1016239;-70
2024/01/06 09:14:24;;;;;;;;;;;;;;;8.90;53.16;98080.15;67536;1282;1018498;-71
2024/01/06 09:17:26;;;;;;;;;;;;;;;8.86;53.18;98082.29;67570;1282;1016165;-71
2024/01/06 09:20:29;;;;;;;;;;;;;;;8.88;53.38;98085.84;67599;1282;1016270;-70
2024/01/06 09:23:32;;;;;;;;;;;;;;;8.90;53.21;98088.32;64990;1282;6394828;-70
2024/01/06 09:26:35;;;;;;;;;;;;;;;8.97;52.92;98093.79;67568;1282;1018174;-70
2024/01/06 09:29:38;;;;;;;;;;;;;;;9.22;52.59;98092.30;67556;1282;1016444;-67
2024/01/06 09:32:41;;;;;;;;;;;;;;;9.39;52.73;98090.51;67569;1282;1016356;-70
2024/01/06 09:35:44;;;;;;;;;;;;;;;9.40;52.78;98094.27;67519;1282;1016489;-70
2024/01/06 09:38:55;;;;;;;;;;;;;;;9.39;52.66;98094.19;67561;1282;1016480;-70
2024/01/06 09:41:58;;;;;;;;;;;;;;;9.33;52.56;98097.66;67513;1282;1015783;-68
2024/01/06 09:45:00;;;;;;;;;;;;;;;9.26;53.00;98093.60;67577;1282;1018192;-70
2024/01/06 09:48:03;;;;;;;;;;;;;;;9.37;52.58;98094.48;67589;1282;1016119;-70
2024/01/06 09:51:06;;;;;;;;;;;;;;;9.41;52.52;98098.59;67549;1282;1016304;-70
2024/01/06 09:54:09;;;;;;;;;;;;;;;9.43;52.45;98101.93;67555;1282;1016529;-71
2024/01/06 09:57:11;;;;;;;;;;;;;;;9.38;52.29;98103.30;67545;1282;1016081;-71
2024/01/06 10:00:14;;;;;;;;;;;;;;;9.36;52.25;98103.27;67539;1283;1016199;-70
2024/01/06 10:03:17;;;;;;;;;;;;;;;9.35;52.46;98105.56;67555;1282;1016494;-70
2024/01/06 10:06:20;;;;;;;;;;;;;;;9.33;52.68;98106.56;67526;1282;1016521;-70
2024/01/06 10:09:23;;;;;;;;;;;;;;;9.31;53.02;98107.56;67527;1282;1016507;-70
2024/01/06 10:12:25;;;;;;;;;;;;;;;9.35;53.04;98105.40;67540;1282;1016378;-70
2024/01/06 10:15:28;;;;;;;;;;;;;;;9.31;53.01;98105.83;67499;1282;1016397;-70
2024/01/06 10:18:31;;;;;;;;;;;;;;;9.35;53.29;98100.36;67550;1282;1016117;-70
2024/01/06 10:21:34;;;;;;;;;;;;;;;9.37;53.55;98105.08;67527;1282;1016354;-70
2024/01/06 10:24:36;;;;;;;;;;;;;;;9.40;53.23;98103.85;67489;1282;1016024;-69
2024/01/06 10:27:39;;;;;;;;;;;;;;;9.46;53.15;98106.26;67547;1282;1016714;-70
2024/01/06 10:30:43;;;;;;;;;;;;;;;9.44;53.30;98111.78;67542;1282;1016483;-69
2024/01/06 10:33:46;;;;;;;;;;;;;;;9.47;53.58;98111.25;67508;1282;1015909;-69
2024/01/06 10:36:49;;;;;;;;;;;;;;;9.58;53.37;98110.00;67496;1282;1016385;-70
2024/01/06 10:39:51;;;;;;;;;;;;;;;9.64;53.12;98110.63;67536;1282;1016607;-69
2024/01/06 10:42:57;;;;;;;;;;;;;;;9.79;53.18;98109.40;67543;1282;1016118;-70
2024/01/06 10:46:04;;;;;;;;;;;;;;;9.82;53.17;98108.54;67497;1282;1016478;-70
2024/01/06 10:49:10;;;;;;;;;;;;;;;9.87;53.59;98100.66;67568;1282;1016510;-70
2024/01/06 10:52:13;;;;;;;;;;;;;;;9.90;53.81;98100.23;67509;1282;1016711;-70
2024/01/06 10:55:17;;;;;;;;;;;;;;;10.05;53.46;98100.77;67565;1282;1016276;-69
2024/01/06 10:58:20;;;;;;;;;;;;;;;10.22;52.68;98094.20;67555;1282;1016475;-70
2024/01/06 11:01:22;;;;;;;;;;;;;;;10.14;52.16;98096.13;67533;1282;1016033;-70
2024/01/06 11:04:25;;;;;;;;;;;;;;;9.98;52.46;98087.34;67510;1282;1018271;-69
2024/01/06 11:07:28;;;;;;;;;;;;;;;9.80;52.64;98087.36;67566;1282;1016504;-69
2024/01/06 11:10:30;;;;;;;;;;;;;;;9.76;52.66;98082.39;67560;1282;1016529;-69
2024/01/06 11:13:33;;;;;;;;;;;;;;;9.46;53.98;98081.30;67512;1282;1017092;-69
2024/01/06 11:16:36;;;;;;;;;;;;;;;9.21;54.24;98082.08;67545;1282;1016490;-69
2024/01/06 11:19:43;;;;;;;;;;;;;;;9.07;54.63;98086.34;67534;1282;1019896;-70
2024/01/06 11:22:46;;;;;;;;;;;;;;;8.99;54.86;98083.39;67577;1282;1016303;-70
2024/01/06 11:25:49;;;;;;;;;;;;;;;9.02;54.92;98083.17;67525;1282;1016330;-67
2024/01/06 11:28:53;;;;;;;;;;;;;;;9.12;55.46;98079.54;67518;1282;1016350;-70
2024/01/06 11:31:56;;;;;;;;;;;;;;;9.02;55.47;98081.30;67554;1282;1016448;-69
2024/01/06 11:35:00;;;;;;;;;;;;;;;8.79;55.79;98083.46;67533;1282;1016491;-70
2024/01/06 11:38:03;;;;;;;;;;;;;;;8.84;55.99;98080.71;67538;1282;1016455;-69
2024/01/06 11:41:06;;;;;;;;;;;;;;;8.89;55.41;98084.73;67560;1282;1016429;-70
2024/01/06 11:44:09;;;;;;;;;;;;;;;9.07;55.20;98082.18;67497;1282;1016353;-68
2024/01/06 11:47:12;;;;;;;;;;;;;;;9.11;55.03;98081.73;67549;1282;1016115;-70
2024/01/06 11:50:15;;;;;;;;;;;;;;;9.07;55.00;98082.52;67489;1282;1016320;-70
2024/01/06 11:53:18;;;;;;;;;;;;;;;8.90;55.94;98084.30;67569;1282;1016489;-70
2024/01/06 11:56:22;;;;;;;;;;;;;;;8.76;56.26;98085.02;67546;1282;1016316;-70
2024/01/06 11:59:25;;;;;;;;;;;;;;;8.72;56.75;98087.27;67561;1282;1016508;-70
2024/01/06 12:02:27;;;;;;;;;;;;;;;8.74;56.36;98086.38;67525;1282;1016435;-70
2024/01/06 12:05:30;;;;;;;;;;;;;;;8.71;56.51;98087.83;67547;1282;1016441;-70
2024/01/06 12:08:33;;;;;;;;;;;;;;;8.62;57.06;98087.88;67534;1282;1016006;-71
2024/01/06 12:11:36;;;;;;;;;;;;;;;8.76;56.91;98090.63;67510;1282;1015681;-70
2024/01/06 12:14:40;;;;;;;;;;;;;;;8.80;56.83;98087.38;67502;1282;1016196;-71
2024/01/06 12:17:43;;;;;;;;;;;;;;;8.88;56.84;98089.20;67478;1282;1019148;-70
2024/01/06 12:20:46;;;;;;;;;;;;;;;8.79;56.69;98090.61;67524;1282;1018235;-70
2024/01/06 12:23:49;;;;;;;;;;;;;;;8.79;56.59;98091.88;67541;1282;1016210;-70
2024/01/06 12:26:52;;;;;;;;;;;;;;;8.79;56.46;98097.38;67554;1282;1016384;-70
2024/01/06 12:29:55;;;;;;;;;;;;;;;8.71;56.78;98096.53;67536;1282;1016457;-70
2024/01/06 12:32:57;;;;;;;;;;;;;;;8.47;58.26;98097.17;67509;1282;1016463;-70
2024/01/06 12:36:01;;;;;;;;;;;;;;;8.44;58.26;98100.66;67492;1282;1016521;-68
2024/01/06 12:39:04;;;;;;;;;;;;;;;8.49;57.90;98106.83;67523;1282;1016576;-70
2024/01/06 12:42:07;;;;;;;;;;;;;;;8.56;58.33;98104.11;67536;1282;1016510;-70
2024/01/06 12:45:11;;;;;;;;;;;;;;;8.61;58.06;98107.99;67528;1282;1016251;-69
2024/01/06 12:48:13;;;;;;;;;;;;;;;8.56;58.17;98109.52;67559;1282;1016504;-70
2024/01/06 12:51:16;;;;;;;;;;;;;;;8.50;58.78;98110.75;67506;1282;1016463;-70
2024/01/06 12:54:19;;;;;;;;;;;;;;;8.45;59.02;98106.55;67516;1282;1016121;-70
2024/01/06 12:57:21;;;;;;;;;;;;;;;8.39;58.89;98111.10;67550;1282;1016213;-69
2024/01/06 13:00:24;;;;;;;;;;;;;;;8.29;59.23;98112.59;67525;1282;1016405;-70
2024/01/06 13:03:27;;;;;;;;;;;;;;;8.30;59.08;98120.88;67531;1282;1016161;-71
2024/01/06 13:06:30;;;;;;;;;;;;;;;8.36;58.76;98123.30;67559;1282;1016424;-71
2024/01/06 13:09:33;;;;;;;;;;;;;;;8.44;58.67;98126.46;67498;1282;1016409;-70
2024/01/06 13:12:36;;;;;;;;;;;;;;;8.35;58.48;98126.84;67533;1282;1015886;-70
2024/01/06 13:15:39;;;;;;;;;;;;;;;8.36;58.57;98123.33;67519;1282;1016405;-71
2024/01/06 13:18:41;;;;;;;;;;;;;;;8.35;58.50;98128.56;67506;1282;1016436;-68
2024/01/06 13:21:44;;;;;;;;;;;;;;;8.32;58.46;98131.55;67552;1282;1016920;-71
2024/01/06 13:24:49;;;;;;;;;;;;;;;8.23;58.69;98133.19;67536;1282;1016063;-71
2024/01/06 13:27:52;;;;;;;;;;;;;;;8.22;58.81;98136.17;67497;1282;1016625;-70
2024/01/06 13:30:54;;;;;;;;;;;;;;;8.13;59.65;98139.02;67561;1282;1016842;-71
2024/01/06 13:33:57;;;;;;;;;;;;;;;8.10;59.31;98144.94;67501;1282;1016401;-70
2024/01/06 13:37:00;;;;;;;;;;;;;;;8.04;59.22;98138.33;67528;1282;1016095;-71
2024/01/06 13:40:03;;;;;;;;;;;;;;;8.07;58.95;98139.70;67548;1282;1018165;-70
2024/01/06 13:43:08;;;;;;;;;;;;;;;7.98;59.19;98139.78;67492;1282;1016394;-68
2024/01/06 13:46:13;;;;;;;;;;;;;;;7.79;59.97;98140.53;67527;1282;1016465;-68
2024/01/06 13:49:16;;;;;;;;;;;;;;;7.87;59.60;98143.91;67559;1282;1016631;-70
2024/01/06 13:52:19;;;;;;;;;;;;;;;7.87;59.67;98143.73;67515;1282;1017414;-70
2024/01/06 13:55:21;;;;;;;;;;;;;;;7.79;59.65;98145.23;67481;1282;1016223;-70
2024/01/06 13:58:25;;;;;;;;;;;;;;;7.80;59.69;98147.80;67546;1282;1016567;-68
2024/01/06 14:01:48;;;;;;;;;;;;;;;7.78;59.67;98154.53;67547;1282;1016474;-70
2024/01/06 14:04:51;;;;;;;;;;;;;;;7.74;59.53;98160.88;67533;1282;1016351;-71
2024/01/06 14:07:54;;;;;;;;;;;;;;;7.79;59.22;98158.80;67476;1282;1016383;-70
2024/01/06 14:10:56;;;;;;;;;;;;;;;7.84;59.26;98164.46;67548;1282;1018439;-71
2024/01/06 14:13:59;;;;;;;;;;;;;;;7.71;59.60;98171.69;67511;1282;1016236;-70
2024/01/06 14:17:02;;;;;;;;;;;;;;;7.53;60.26;98176.72;67498;1282;1016194;-71
2024/01/06 14:20:05;;;;;;;;;;;;;;;7.46;60.28;98181.69;67551;1282;1016909;-70
2024/01/06 14:23:09;;;;;;;;;;;;;;;7.22;61.29;98191.02;67518;1282;1016448;-71
2024/01/06 14:26:12;;;;;;;;;;;;;;;7.34;61.04;98191.23;67553;1282;1016477;-70
2024/01/06 14:29:16;;;;;;;;;;;;;;;7.39;61.20;98194.76;67556;1282;1019073;-70
2024/01/06 14:32:19;;;;;;;;;;;;;;;7.30;61.44;98195.09;67558;1282;1016461;-71
2024/01/06 14:35:22;;;;;;;;;;;;;;;7.33;61.21;98195.95;67552;1282;1016546;-70
2024/01/06 14:38:24;;;;;;;;;;;;;;;7.27;61.27;98199.64;67531;1282;1016148;-69
2024/01/06 14:41:27;;;;;;;;;;;;;;;7.17;61.73;98199.32;67550;1282;1016133;-70
2024/01/06 14:44:30;;;;;;;;;;;;;;;7.05;62.45;98198.42;67521;1282;1016444;-70
2024/01/06 14:47:33;;;;;;;;;;;;;;;7.14;61.88;98203.14;67516;1282;1016428;-68
2024/01/06 14:50:36;;;;;;;;;;;;;;;7.22;61.69;98201.81;67583;1282;1016336;-71
2024/01/06 14:53:38;;;;;;;;;;;;;;;7.26;61.42;98198.61;67513;1282;1015762;-70
2024/01/06 14:56:41;;;;;;;;;;;;;;;7.17;61.70;98206.98;67534;1282;1016364;-68
2024/01/06 14:59:44;;;;;;;;;;;;;;;6.96;62.07;98214.03;67576;1282;1016457;-71
2024/01/06 15:02:47;;;;;;;;;;;;;;;6.79;62.78;98216.36;67523;1282;1016087;-70
2024/01/06 15:05:49;;;;;;;;;;;;;;;6.94;62.40;98219.91;67562;1282;1016464;-70
2024/01/06 15:08:53;;;;;;;;;;;;;;;6.86;62.75;98220.67;67557;1282;1016517;-71
2024/01/06 15:11:56;;;;;;;;;;;;;;;6.84;62.93;98224.48;67548;1282;1015957;-70
2024/01/06 15:14:59;;;;;;;;;;;;;;;6.80;63.04;98229.20;67550;1282;1017644;-71
2024/01/06 15:18:02;;;;;;;;;;;;;;;6.87;62.70;98230.17;67550;1282;1016441;-71
2024/01/06 15:21:05;;;;;;;;;;;;;;;6.88;62.86;98231.85;67605;1280;1016737;-70
2024/01/06 15:24:07;;;;;;;;;;;;;;;6.81;62.88;98232.99;67509;1282;1016580;-69
2024/01/06 15:27:10;;;;;;;;;;;;;;;6.76;63.27;98230.42;67576;1282;1016092;-70
2024/01/06 15:30:13;;;;;;;;;;;;;;;6.77;63.08;98230.56;67508;1282;1016465;-68
2024/01/06 15:33:15;;;;;;;;;;;;;;;6.75;63.16;98232.77;67547;1282;1016210;-71
2024/01/06 15:36:18;;;;;;;;;;;;;;;6.80;63.21;98234.06;67583;1282;1017874;-70
2024/01/06 15:39:21;;;;;;;;;;;;;;;6.72;62.97;98231.70;67555;1282;1016544;-70